Time;durP1;ratioP1;P1;durP2;ratioP2;P2;SDS_P1;SDS_P2;PMS_P1;PMS_P2;Temp;Humidity;BMP_temperature;BMP_pressure;BME280_temperature;BME280_humidity;BME280_pressure;Samples;Min_cycle;Max_cycle;Signal;HPM_P1;HPM_P2
2022/03/01 00:01:43;;;;;;;1.30;1.20;;;0.50;99.90;;;-143.19;100.00;53775.09;4916196;29;20234;-66
2022/03/01 00:04:11;;;;;;;1.20;1.10;;;0.50;99.90;;;-143.19;100.00;53775.09;4917808;29;20241;-66
2022/03/01 00:06:40;;;;;;;0.47;0.47;;;0.40;99.90;;;-143.19;100.00;53775.09;4933836;29;20237;-66
2022/03/01 00:09:08;;;;;;;0.90;0.90;;;0.50;99.90;;;-143.19;100.00;53775.09;4930501;29;20218;-66
2022/03/01 00:11:36;;;;;;;1.00;1.00;;;0.50;99.90;;;-143.19;100.00;53775.09;4927816;29;20218;-67
2022/03/01 00:14:06;;;;;;;1.35;1.25;;;0.40;99.90;;;-143.19;100.00;53775.09;4910274;29;20622;-67
2022/03/01 00:16:34;;;;;;;1.02;1.02;;;0.40;99.90;;;-143.19;100.00;53775.09;4903478;29;20217;-66
2022/03/01 00:19:02;;;;;;;1.17;1.08;;;0.40;99.90;;;-143.19;100.00;53775.09;4928944;29;20596;-66
2022/03/01 00:21:32;;;;;;;1.05;1.05;;;0.30;99.90;;;-143.19;100.00;53775.09;4907570;29;20230;-66
2022/03/01 00:24:00;;;;;;;0.70;0.70;;;0.30;99.90;;;-143.19;100.00;53775.09;4908202;29;20726;-67
2022/03/01 00:26:29;;;;;;;2.30;2.20;;;0.30;99.90;;;-143.19;100.00;53775.09;4926104;29;20206;-67
2022/03/01 00:28:57;;;;;;;0.80;0.80;;;0.40;99.90;;;-143.19;100.00;53775.09;4910152;29;20206;-66
2022/03/01 00:31:26;;;;;;;0.90;0.90;;;0.30;99.90;;;-143.19;100.00;53775.09;4919704;29;20218;-66
2022/03/01 00:33:54;;;;;;;0.60;0.60;;;0.20;99.90;;;-143.19;100.00;53775.09;4920480;29;20268;-66
2022/03/01 00:36:22;;;;;;;0.75;0.75;;;0.30;99.90;;;-143.19;100.00;53775.09;4920678;29;20230;-66
2022/03/01 00:38:50;;;;;;;2.65;2.47;;;0.20;99.90;;;-143.19;100.00;53775.09;4903934;29;20576;-66
2022/03/01 00:41:18;;;;;;;0.70;0.70;;;0.10;99.90;;;-143.19;100.00;53775.09;4907316;29;20219;-66
2022/03/01 00:43:46;;;;;;;0.80;0.80;;;0.00;99.90;;;-143.19;100.00;53775.09;4935311;29;20608;-66
2022/03/01 00:46:14;;;;;;;0.70;0.70;;;0.00;99.90;;;-143.19;100.00;53775.09;4911450;29;20202;-66
2022/03/01 00:49:00;;;;;;;1.10;1.05;;;0.00;99.90;;;-143.19;100.00;53775.09;4905200;29;20219;-66
2022/03/01 00:51:29;;;;;;;1.38;1.27;;;0.30;99.90;;;-143.19;100.00;53775.09;4939510;29;20206;-66
2022/03/01 00:53:57;;;;;;;1.17;1.08;;;0.20;99.90;;;-143.19;100.00;53775.09;4929906;29;20249;-66
2022/03/01 00:56:26;;;;;;;1.10;1.00;;;0.00;99.90;;;-143.19;100.00;53775.09;4931671;29;20218;-67
2022/03/01 00:58:54;;;;;;;1.25;1.15;;;0.10;99.90;;;-143.19;100.00;53775.09;4938896;28;20209;-66
2022/03/01 01:01:21;;;;;;;0.80;0.80;;;0.00;99.90;;;-143.19;100.00;53775.09;4921531;29;20503;-66
2022/03/01 01:03:50;;;;;;;0.80;0.80;;;0.50;99.90;;;-143.19;100.00;53775.09;4908985;29;20230;-66
2022/03/01 01:06:18;;;;;;;1.10;1.00;;;-0.10;99.90;;;-143.19;100.00;53775.09;4886942;29;20207;-66
2022/03/01 01:08:46;;;;;;;1.13;1.02;;;-0.10;99.90;;;-143.19;100.00;53775.09;4925767;29;20213;-66
2022/03/01 01:11:14;;;;;;;0.75;0.75;;;-0.20;99.90;;;-143.19;100.00;53775.09;4942694;29;20210;-66
2022/03/01 01:13:42;;;;;;;1.20;1.10;;;-0.20;99.90;;;-143.19;100.00;53775.09;4919136;29;20242;-66
2022/03/01 01:16:11;;;;;;;1.20;1.10;;;-0.20;99.90;;;-143.19;100.00;53775.09;4929131;29;20217;-66
2022/03/01 01:18:43;;;;;;;2.00;1.80;;;-0.20;99.90;;;-143.19;100.00;53775.09;4927084;29;20222;-66
2022/03/01 01:21:12;;;;;;;1.23;1.13;;;0.00;99.90;;;-143.19;100.00;53775.09;4937102;28;20234;-66
2022/03/01 01:23:43;;;;;;;1.23;1.13;;;-0.30;99.90;;;-143.19;100.00;53775.09;4937421;29;20242;-66
2022/03/01 01:26:14;;;;;;;1.15;1.05;;;-0.40;99.90;;;-143.19;100.00;53775.09;4922513;29;20203;-67
2022/03/01 01:28:42;;;;;;;1.63;1.50;;;-0.50;99.90;;;-143.19;100.00;53775.09;4893203;29;20206;-67
2022/03/01 01:31:09;;;;;;;1.02;0.93;;;-0.40;99.90;;;-143.19;100.00;53775.09;4943481;28;20225;-66
2022/03/01 01:33:38;;;;;;;1.08;1.00;;;-0.30;99.90;;;-143.19;100.00;53775.09;4906109;29;20243;-66
2022/03/01 01:36:06;;;;;;;0.85;0.85;;;-0.40;99.90;;;-143.19;100.00;53775.09;4935629;29;20221;-66
2022/03/01 01:38:33;;;;;;;1.70;1.58;;;-0.60;99.90;;;-143.19;100.00;53775.09;4892117;29;20242;-66
2022/03/01 01:41:02;;;;;;;0.90;0.90;;;-0.50;99.90;;;-143.19;100.00;53775.09;4904589;29;20226;-66
2022/03/01 01:43:29;;;;;;;1.75;1.50;;;-0.60;99.90;;;-143.19;100.00;53775.09;4937908;29;20222;-66
2022/03/01 01:45:58;;;;;;;0.68;0.68;;;-0.40;99.90;;;-143.19;100.00;53775.09;4919151;29;20265;-66
2022/03/01 01:48:26;;;;;;;1.50;1.40;;;-0.50;99.90;;;-143.19;100.00;53775.09;4909088;29;20210;-66
2022/03/01 01:50:54;;;;;;;1.20;1.10;;;-0.60;99.90;;;-143.19;100.00;53775.09;4904430;29;20214;-66
2022/03/01 01:53:22;;;;;;;0.80;0.80;;;-0.70;99.90;;;-143.19;100.00;53775.09;4893454;29;20218;-66
2022/03/01 01:55:50;;;;;;;1.35;1.20;;;-1.00;99.90;;;-143.19;100.00;53775.09;4907194;29;20210;-66
2022/03/01 01:58:19;;;;;;;1.63;1.42;;;-0.70;99.90;;;-143.19;100.00;53775.09;4890668;29;20213;-66
2022/03/01 02:00:47;;;;;;;1.83;1.60;;;-0.70;99.90;;;-143.19;100.00;53775.09;4921257;29;20213;-66
2022/03/01 02:03:16;;;;;;;1.40;1.27;;;-0.50;99.90;;;-143.19;100.00;53775.09;4887860;29;20233;-66
2022/03/01 02:05:44;;;;;;;1.10;1.00;;;-0.60;99.90;;;-143.19;100.00;53775.09;4901617;29;20215;-66
2022/03/01 02:08:12;;;;;;;1.17;1.08;;;-0.90;99.90;;;-143.19;100.00;53775.09;4935503;29;20226;-66
2022/03/01 02:10:40;;;;;;;1.17;1.08;;;-1.00;99.90;;;-143.19;100.00;53775.09;4921436;29;20207;-66
2022/03/01 02:13:08;;;;;;;2.13;1.60;;;-1.00;99.90;;;-143.19;100.00;53775.09;4921694;29;20237;-66
2022/03/01 02:15:37;;;;;;;0.80;0.80;;;-1.00;99.90;;;-143.19;100.00;53775.09;4906454;29;20215;-66
2022/03/01 02:18:05;;;;;;;1.40;1.20;;;-0.90;99.90;;;-143.19;100.00;53775.09;4936979;29;20205;-66
2022/03/01 02:20:33;;;;;;;1.17;1.02;;;-1.00;99.90;;;-143.19;100.00;53775.09;4909383;29;20217;-66
2022/03/01 02:23:01;;;;;;;1.67;1.33;;;-1.10;99.90;;;-143.19;100.00;53775.09;4904182;29;20222;-67
2022/03/01 02:25:30;;;;;;;0.90;0.90;;;-1.10;99.90;;;-143.19;100.00;53775.09;4923314;29;20221;-67
2022/03/01 02:27:58;;;;;;;1.45;1.27;;;-1.20;99.90;;;-143.19;100.00;53775.09;4913334;29;20211;-66
2022/03/01 02:30:26;;;;;;;0.70;0.70;;;-1.10;99.90;;;-143.19;100.00;53775.09;4907116;29;20217;-66
2022/03/01 02:32:54;;;;;;;1.38;1.25;;;-1.10;99.90;;;-143.19;100.00;53775.09;4921838;29;20225;-66
2022/03/01 02:35:23;;;;;;;1.40;1.30;;;-1.20;99.90;;;-143.19;100.00;53775.09;4929753;29;20222;-66
2022/03/01 02:37:51;;;;;;;1.58;1.45;;;-1.20;99.90;;;-143.19;100.00;53775.09;4947407;28;20222;-66
2022/03/01 02:40:20;;;;;;;1.08;0.98;;;-1.30;99.90;;;-143.19;100.00;53775.09;4925452;29;20220;-66
2022/03/01 02:42:48;;;;;;;2.25;1.75;;;-1.30;99.90;;;-143.19;100.00;53775.09;4930664;28;20238;-66
2022/03/01 02:45:18;;;;;;;2.15;1.95;;;-1.30;99.90;;;-143.19;100.00;53775.09;4920860;29;20235;-66
2022/03/01 02:47:46;;;;;;;1.48;1.35;;;-1.30;99.90;;;-143.19;100.00;53775.09;4933623;29;20214;-66
2022/03/01 02:50:16;;;;;;;0.90;0.90;;;-1.10;99.90;;;-143.19;100.00;53775.09;4919901;29;20210;-66
2022/03/01 02:52:44;;;;;;;1.73;1.48;;;-1.20;99.90;;;-143.19;100.00;53775.09;4900141;29;20210;-66
2022/03/01 02:55:13;;;;;;;1.20;1.10;;;-1.30;99.90;;;-143.19;100.00;53775.09;4905800;29;20234;-66
2022/03/01 02:57:42;;;;;;;1.25;1.13;;;-1.30;99.90;;;-143.19;100.00;53775.09;4920380;29;20214;-66
2022/03/01 03:00:10;;;;;;;1.38;1.27;;;-1.40;99.90;;;-143.19;100.00;53775.09;4920434;29;20210;-66
2022/03/01 03:02:43;;;;;;;1.33;1.20;;;-1.30;99.90;;;-143.19;100.00;53775.09;4908478;29;20799;-66
2022/03/01 03:05:11;;;;;;;1.65;1.40;;;-1.40;99.90;;;-143.19;100.00;53775.09;4931500;28;20226;-66
2022/03/01 03:07:43;;;;;;;1.50;1.35;;;-1.50;99.90;;;-143.19;100.00;53775.09;4913568;29;20202;-66
2022/03/01 03:10:11;;;;;;;1.10;1.00;;;-1.00;99.90;;;-143.19;100.00;53775.09;4920090;29;20236;-66
2022/03/01 03:12:40;;;;;;;0.80;0.80;;;-1.50;99.90;;;-143.19;100.00;53775.09;4911472;29;20213;-66
2022/03/01 03:15:09;;;;;;;1.80;1.40;;;-1.40;99.90;;;-143.19;100.00;53775.09;4909508;29;20229;-66
2022/03/01 03:17:38;;;;;;;1.10;1.00;;;-1.40;99.90;;;-143.19;100.00;53775.09;4906768;29;20206;-66
2022/03/01 03:20:06;;;;;;;1.58;1.48;;;-1.50;99.90;;;-143.19;100.00;53775.09;4918620;29;20218;-67
2022/03/01 03:22:35;;;;;;;1.33;1.15;;;-1.50;99.90;;;-143.19;100.00;53775.09;4916354;29;20230;-66
2022/03/01 03:25:04;;;;;;;1.50;1.20;;;-1.50;99.90;;;-143.19;100.00;53775.09;4905042;29;20227;-66
2022/03/01 03:27:32;;;;;;;1.67;1.45;;;-1.50;99.90;;;-143.19;100.00;53775.09;4917951;29;20222;-66
2022/03/01 03:30:00;;;;;;;0.65;0.65;;;-1.50;99.90;;;-143.19;100.00;53775.09;4891256;29;20210;-66
2022/03/01 03:32:28;;;;;;;1.65;1.40;;;-1.60;99.90;;;-143.19;100.00;53775.09;4925834;29;20219;-66
2022/03/01 03:34:56;;;;;;;2.00;1.50;;;-1.70;99.90;;;-143.19;100.00;53775.09;4934968;23;20241;-65
2022/03/01 03:37:24;;;;;;;2.05;1.63;;;-0.90;99.90;;;-143.19;100.00;53775.09;4943817;28;20214;-64
2022/03/01 03:39:52;;;;;;;1.70;1.40;;;-1.70;99.90;;;-143.19;100.00;53775.09;4939005;29;20572;-64
2022/03/01 03:42:20;;;;;;;1.38;1.20;;;-1.80;99.90;;;-143.19;100.00;53775.09;4958356;28;20237;-64
2022/03/01 03:44:48;;;;;;;1.38;1.20;;;-1.80;99.90;;;-143.19;100.00;53775.09;4937140;28;20223;-64
2022/03/01 03:47:16;;;;;;;1.70;1.30;;;-1.80;99.90;;;-143.19;100.00;53775.09;4923165;28;20205;-64
2022/03/01 03:49:44;;;;;;;1.65;1.40;;;-1.70;99.90;;;-143.19;100.00;53775.09;4936396;29;20236;-64
2022/03/01 03:52:13;;;;;;;2.17;1.70;;;-1.80;99.90;;;-143.19;100.00;53775.09;4942297;28;20213;-64
2022/03/01 03:54:41;;;;;;;2.55;1.90;;;-1.80;99.90;;;-143.19;100.00;53775.09;4936089;29;20248;-65
2022/03/01 03:57:09;;;;;;;1.80;1.42;;;-1.80;99.90;;;-143.19;100.00;53775.09;4923818;28;20221;-65
2022/03/01 03:59:39;;;;;;;1.23;1.10;;;-1.90;99.90;;;-143.19;100.00;53775.09;4938014;29;20213;-65
2022/03/01 04:02:07;;;;;;;2.88;2.10;;;-1.90;99.90;;;-143.19;100.00;53775.09;4921447;29;20205;-64
2022/03/01 04:04:36;;;;;;;0.80;0.80;;;-2.00;99.90;;;-143.19;100.00;53775.09;4940577;29;20716;-65
2022/03/01 04:07:04;;;;;;;1.48;1.20;;;-1.90;99.90;;;-143.19;100.00;53775.09;4926018;28;20209;-64
2022/03/01 04:09:34;;;;;;;1.67;1.30;;;-1.90;99.90;;;-143.19;100.00;53775.09;4934406;28;20210;-64
2022/03/01 04:12:03;;;;;;;1.55;1.30;;;-1.90;99.90;;;-143.19;100.00;53775.09;4942050;29;20206;-64
2022/03/01 04:14:31;;;;;;;1.20;1.02;;;-1.80;99.90;;;-143.19;100.00;53775.09;4940218;28;20229;-64
2022/03/01 04:17:02;;;;;;;1.48;1.17;;;-1.70;99.90;;;-143.19;100.00;53775.09;4945632;28;20205;-65
2022/03/01 04:19:31;;;;;;;1.60;1.30;;;-1.70;99.90;;;-143.19;100.00;53775.09;4957086;28;20210;-64
2022/03/01 04:21:58;;;;;;;1.17;1.08;;;-1.60;99.90;;;-143.19;100.00;53775.09;4922711;29;20206;-65
2022/03/01 04:24:27;;;;;;;2.95;2.20;;;-1.70;99.90;;;-143.19;100.00;53775.09;4935172;28;20257;-64
2022/03/01 04:26:55;;;;;;;1.33;1.23;;;-1.70;99.90;;;-143.19;100.00;53775.09;4941204;28;20220;-65
2022/03/01 04:29:24;;;;;;;1.75;1.38;;;-1.70;99.90;;;-143.19;100.00;53775.09;4923708;28;20230;-65
2022/03/01 04:31:52;;;;;;;1.40;1.30;;;-1.80;99.90;;;-143.19;100.00;53775.09;4937801;29;20225;-65
2022/03/01 04:34:21;;;;;;;1.08;0.98;;;-1.50;99.90;;;-143.19;100.00;53775.09;4925729;28;20240;-64
2022/03/01 04:36:49;;;;;;;1.52;1.20;;;-1.80;99.90;;;-143.19;100.00;53775.09;4921236;28;20210;-64
2022/03/01 04:39:17;;;;;;;1.55;1.20;;;-1.80;99.90;;;-143.19;100.00;53775.09;4960457;28;20198;-64
2022/03/01 04:41:45;;;;;;;1.92;1.52;;;-1.90;99.90;;;-143.19;100.00;53775.09;4941017;29;20217;-64
2022/03/01 04:44:13;;;;;;;1.52;1.38;;;-1.50;99.90;;;-143.19;100.00;53775.09;4942658;28;20245;-65
2022/03/01 04:46:42;;;;;;;0.80;0.80;;;-2.00;99.90;;;-143.19;100.00;53775.09;4923933;29;20214;-65
2022/03/01 04:49:11;;;;;;;1.35;1.25;;;-2.00;99.90;;;-143.19;100.00;53775.09;4945952;28;20197;-66
2022/03/01 04:51:39;;;;;;;1.25;1.10;;;-1.80;99.90;;;-143.19;100.00;53775.09;4937844;29;20210;-64
2022/03/01 04:54:08;;;;;;;1.45;1.15;;;-2.00;99.90;;;-143.19;100.00;53775.09;4922977;28;20233;-65
2022/03/01 04:56:36;;;;;;;0.80;0.80;;;-2.00;99.90;;;-143.19;100.00;53775.09;4920518;29;20276;-65
2022/03/01 04:59:04;;;;;;;2.72;2.08;;;-2.10;99.90;;;-143.19;100.00;53775.09;4941631;28;20240;-65
2022/03/01 05:01:32;;;;;;;0.80;0.80;;;-2.20;99.90;;;-143.19;100.00;53775.09;4945647;28;20216;-65
2022/03/01 05:04:00;;;;;;;1.77;1.40;;;-2.00;99.90;;;-143.19;100.00;53775.09;4951727;28;20237;-64
2022/03/01 05:06:31;;;;;;;2.03;1.50;;;-2.10;99.90;;;-143.19;100.00;53775.09;4922993;29;20202;-64
2022/03/01 05:08:59;;;;;;;3.42;2.42;;;-2.20;99.90;;;-143.19;100.00;53775.09;4938765;28;20213;-65
2022/03/01 05:11:27;;;;;;;1.35;1.17;;;-2.20;99.90;;;-143.19;100.00;53775.09;4924217;28;20213;-64
2022/03/01 05:13:55;;;;;;;1.33;1.17;;;-1.80;99.90;;;-143.19;100.00;53775.09;4922834;29;20242;-64
2022/03/01 05:16:23;;;;;;;1.58;1.30;;;-2.30;99.90;;;-143.19;100.00;53775.09;4941377;28;20209;-64
2022/03/01 05:18:51;;;;;;;3.15;2.20;;;-2.30;99.90;;;-143.19;100.00;53775.09;4922733;28;20589;-64
2022/03/01 05:21:19;;;;;;;1.60;1.35;;;-2.10;99.90;;;-143.19;100.00;53775.09;4956175;28;20591;-64
2022/03/01 05:23:47;;;;;;;1.40;1.05;;;-2.20;99.90;;;-143.19;100.00;53775.09;4941250;29;20229;-65
2022/03/01 05:26:15;;;;;;;2.33;1.75;;;-2.30;99.90;;;-143.19;100.00;53775.09;4923600;28;20221;-65
2022/03/01 05:28:43;;;;;;;1.98;1.50;;;-1.40;99.90;;;-143.19;100.00;53775.09;4937424;29;20213;-65
2022/03/01 05:31:11;;;;;;;1.45;1.23;;;-2.30;99.90;;;-143.19;100.00;53775.09;4926915;28;20208;-65
2022/03/01 05:33:39;;;;;;;1.70;1.33;;;-2.10;99.90;;;-143.19;100.00;53775.09;4941887;28;20217;-64
2022/03/01 05:36:07;;;;;;;1.15;1.05;;;-2.00;99.90;;;-143.19;100.00;53775.09;4922705;28;20226;-64
2022/03/01 05:38:36;;;;;;;1.45;1.20;;;-2.10;99.90;;;-143.19;100.00;53775.09;4922726;28;20202;-64
2022/03/01 05:41:04;;;;;;;1.20;1.10;;;-2.10;99.90;;;-143.19;100.00;53775.09;4955584;28;20213;-64
2022/03/01 05:43:32;;;;;;;1.40;1.17;;;-2.30;99.90;;;-143.19;100.00;53775.09;4934826;29;20218;-64
2022/03/01 05:46:01;;;;;;;1.38;1.27;;;-2.40;99.90;;;-143.19;100.00;53775.09;4938418;28;20234;-65
2022/03/01 05:48:29;;;;;;;1.35;1.25;;;-2.30;99.90;;;-143.19;100.00;53775.09;4943435;28;20212;-64
2022/03/01 05:50:57;;;;;;;1.65;1.40;;;-2.30;99.90;;;-143.19;100.00;53775.09;4919922;28;20213;-65
2022/03/01 05:53:25;;;;;;;1.48;1.20;;;-2.40;99.90;;;-143.19;100.00;53775.09;4943875;28;20209;-65
2022/03/01 05:55:53;;;;;;;1.30;1.20;;;-1.70;99.90;;;-143.19;100.00;53775.09;4924749;29;20234;-65
2022/03/01 05:58:21;;;;;;;2.92;2.05;;;-2.50;99.90;;;-143.19;100.00;53775.09;4919475;28;20213;-65
2022/03/01 06:00:49;;;;;;;2.97;2.40;;;-2.50;99.90;;;-143.19;100.00;53775.09;4914049;28;20210;-65
2022/03/01 06:03:17;;;;;;;3.03;2.28;;;-2.50;99.90;;;-143.19;100.00;53775.09;4914007;28;20217;-65
2022/03/01 06:05:45;;;;;;;1.85;1.48;;;-2.50;99.90;;;-143.19;100.00;53775.09;4930138;28;20233;-64
2022/03/01 06:08:13;;;;;;;2.05;1.65;;;-2.60;99.90;;;-143.19;100.00;53775.09;4925189;28;20223;-65
2022/03/01 06:10:41;;;;;;;2.30;1.77;;;-2.60;99.90;;;-143.19;100.00;53775.09;4918587;29;20206;-65
2022/03/01 06:13:09;;;;;;;1.52;1.42;;;-2.70;99.90;;;-143.19;100.00;53775.09;4935165;28;20225;-64
2022/03/01 06:15:38;;;;;;;2.30;1.80;;;-2.70;99.90;;;-143.19;100.00;53775.09;4940891;28;20225;-64
2022/03/01 06:18:06;;;;;;;2.10;1.70;;;-2.60;99.90;;;-143.19;100.00;53775.09;4931534;28;20202;-64
2022/03/01 06:20:34;;;;;;;2.38;1.83;;;-2.00;99.90;;;-143.19;100.00;53775.09;4912815;28;20202;-65
2022/03/01 06:23:02;;;;;;;3.45;3.15;;;-2.60;99.90;;;-143.19;100.00;53775.09;4915431;28;20210;-66
2022/03/01 06:25:30;;;;;;;1.88;1.50;;;-2.10;99.90;;;-143.19;100.00;53775.09;4919383;28;20241;-65
2022/03/01 06:27:58;;;;;;;1.88;1.45;;;-2.60;99.90;;;-143.19;100.00;53775.09;4950032;28;20237;-65
2022/03/01 06:30:27;;;;;;;0.80;0.80;;;-2.10;99.90;;;-143.19;100.00;53775.09;4949130;28;20229;-65
2022/03/01 06:32:55;;;;;;;1.83;1.40;;;-2.60;99.90;;;-143.19;100.00;53775.09;4916330;28;20228;-65
2022/03/01 06:35:23;;;;;;;1.38;1.27;;;-2.30;99.90;;;-143.19;100.00;53775.09;4918998;28;20255;-65
2022/03/01 06:37:53;;;;;;;2.47;1.85;;;-2.70;99.90;;;-143.19;100.00;53775.09;4919421;28;20212;-65
2022/03/01 06:40:21;;;;;;;2.17;1.63;;;-2.70;99.90;;;-143.19;100.00;53775.09;4921411;28;20209;-64
2022/03/01 06:42:49;;;;;;;1.85;1.40;;;-2.70;99.90;;;-143.19;100.00;53775.09;4935091;28;20218;-65
2022/03/01 06:45:18;;;;;;;2.10;1.67;;;-2.70;99.90;;;-143.19;100.00;53775.09;4944345;28;20254;-65
2022/03/01 06:47:46;;;;;;;1.58;1.23;;;-2.60;99.90;;;-143.19;100.00;53775.09;4917425;29;20214;-65
2022/03/01 06:50:15;;;;;;;2.85;2.05;;;-2.60;99.90;;;-143.19;100.00;53775.09;4898804;28;20283;-65
2022/03/01 06:52:43;;;;;;;2.38;1.77;;;-2.50;99.90;;;-143.19;100.00;53775.09;4929449;29;20198;-65
2022/03/01 06:55:12;;;;;;;1.90;1.45;;;-2.40;99.90;;;-143.19;100.00;53775.09;4934231;28;20233;-67
2022/03/01 06:57:42;;;;;;;2.08;1.58;;;-2.50;99.90;;;-143.19;100.00;53775.09;4933344;29;20225;-66
2022/03/01 07:00:12;;;;;;;2.42;1.90;;;-2.10;99.90;;;-143.19;100.00;53775.09;4937507;28;20248;-65
2022/03/01 07:02:41;;;;;;;1.63;1.30;;;-2.50;99.90;;;-143.19;100.00;53775.09;4939846;29;20217;-65
2022/03/01 07:05:13;;;;;;;1.17;1.00;;;-2.30;99.90;;;-143.19;100.00;53775.09;4951868;28;20249;-65
2022/03/01 07:07:42;;;;;;;1.42;1.17;;;-2.50;99.90;;;-143.19;100.00;53775.09;4962885;28;20217;-65
2022/03/01 07:10:13;;;;;;;1.65;1.25;;;-2.50;99.90;;;-143.19;100.00;53775.09;4944023;28;20216;-65
2022/03/01 07:12:44;;;;;;;1.90;1.35;;;-2.40;99.90;;;-143.19;100.00;53775.09;4921585;28;20232;-65
2022/03/01 07:15:12;;;;;;;1.80;1.38;;;-2.30;99.90;;;-143.19;100.00;53775.09;4964352;28;20240;-65
2022/03/01 07:17:46;;;;;;;2.05;1.50;;;-2.40;99.90;;;-143.19;100.00;53775.09;4927185;29;20205;-64
2022/03/01 07:20:15;;;;;;;1.70;1.40;;;-1.90;99.90;;;-143.19;100.00;53775.09;4941397;28;20210;-64
2022/03/01 07:22:43;;;;;;;2.03;1.52;;;-2.30;99.90;;;-143.19;100.00;53775.09;4938040;29;20214;-64
2022/03/01 07:25:12;;;;;;;1.95;1.45;;;-2.20;99.90;;;-143.19;100.00;53775.09;4920297;28;20237;-67
2022/03/01 07:27:49;;;;;;;1.77;1.33;;;-2.10;99.90;;;-143.19;100.00;53775.09;4938406;29;20209;-65
2022/03/01 07:30:19;;;;;;;1.77;1.45;;;-2.00;99.90;;;-143.19;100.00;53775.09;4942030;28;20213;-66
2022/03/01 07:32:49;;;;;;;3.28;2.40;;;-1.90;99.90;;;-143.19;100.00;53775.09;4922448;28;20201;-66
2022/03/01 07:35:17;;;;;;;0.60;0.60;;;-1.90;99.90;;;-143.19;100.00;53775.09;4950791;28;20237;-65
2022/03/01 07:37:45;;;;;;;1.80;1.40;;;-1.90;99.90;;;-143.19;100.00;53775.09;4951971;28;20214;-66
2022/03/01 07:40:20;;;;;;;1.27;1.13;;;-1.80;99.90;;;-143.19;100.00;53775.09;4951183;28;20220;-65
2022/03/01 07:42:50;;;;;;;2.25;2.05;;;-1.70;99.90;;;-143.19;100.00;53775.09;4942041;29;20206;-65
2022/03/01 07:45:19;;;;;;;1.48;1.27;;;-1.60;99.90;;;-143.19;100.00;53775.09;4940573;28;20248;-64
2022/03/01 07:47:51;;;;;;;1.45;1.20;;;-1.40;99.90;;;-143.19;100.00;53775.09;4942750;28;20201;-65
2022/03/01 07:50:20;;;;;;;2.17;1.92;;;-1.30;99.90;;;-143.19;100.00;53775.09;4933764;28;20217;-65
2022/03/01 07:52:51;;;;;;;1.63;1.35;;;-0.80;99.90;;;-143.19;100.00;53775.09;4932828;28;20213;-66
2022/03/01 07:55:21;;;;;;;1.35;1.10;;;-1.20;99.90;;;-143.19;100.00;53775.09;4954200;28;20694;-66
2022/03/01 07:57:51;;;;;;;2.10;1.60;;;-1.10;99.90;;;-143.19;100.00;53775.09;4942925;29;20213;-67
2022/03/01 08:00:23;;;;;;;1.35;1.20;;;-1.00;99.90;;;-143.19;100.00;53775.09;4919722;28;20221;-66
2022/03/01 08:02:52;;;;;;;1.85;1.45;;;-0.90;99.90;;;-143.19;100.00;53775.09;4936190;29;20221;-65
2022/03/01 08:05:21;;;;;;;1.65;1.33;;;-0.80;99.90;;;-143.19;100.00;53775.09;4933660;28;20228;-65
2022/03/01 08:07:51;;;;;;;1.65;1.27;;;-0.60;99.90;;;-143.19;100.00;53775.09;4938068;28;20205;-66
2022/03/01 08:10:20;;;;;;;1.40;1.30;;;-0.50;99.90;;;-143.19;100.00;53775.09;4917910;28;20209;-65
2022/03/01 08:12:48;;;;;;;1.05;0.90;;;-0.50;99.90;;;-143.19;100.00;53775.09;4936515;28;20213;-66
2022/03/01 08:15:17;;;;;;;0.80;0.80;;;-0.40;99.90;;;-143.19;100.00;53775.09;4929671;29;20221;-65
2022/03/01 08:17:50;;;;;;;1.60;1.27;;;-0.30;99.90;;;-143.19;100.00;53775.09;4902049;29;20231;-65
2022/03/01 08:20:19;;;;;;;1.73;1.45;;;-0.10;99.90;;;-143.19;100.00;53775.09;4932161;29;20202;-65
2022/03/01 08:22:47;;;;;;;1.20;1.00;;;-0.10;99.90;;;-143.19;100.00;53775.09;4925667;29;20210;-66
2022/03/01 08:25:18;;;;;;;1.92;1.40;;;0.40;99.90;;;-143.19;100.00;53775.09;4931037;29;20261;-65
2022/03/01 08:27:46;;;;;;;1.20;1.05;;;0.10;99.90;;;-143.19;100.00;53775.09;4951014;29;20225;-66
2022/03/01 08:30:15;;;;;;;1.25;1.05;;;0.60;99.90;;;-143.19;100.00;53775.09;4938150;29;20202;-66
2022/03/01 08:32:43;;;;;;;1.80;1.30;;;0.20;99.90;;;-143.19;100.00;53775.09;4918126;29;20588;-65
2022/03/01 08:35:11;;;;;;;1.60;1.23;;;0.30;99.90;;;-143.19;100.00;53775.09;4937250;29;20241;-66
2022/03/01 08:37:41;;;;;;;2.20;1.60;;;0.40;99.90;;;-143.19;100.00;53775.09;4948273;28;20206;-65
2022/03/01 08:40:11;;;;;;;1.73;1.30;;;0.80;99.90;;;-143.19;100.00;53775.09;4920406;29;20202;-65
2022/03/01 08:42:41;;;;;;;1.35;1.05;;;0.50;99.90;;;-143.19;100.00;53775.09;4929326;29;20206;-65
2022/03/01 08:45:09;;;;;;;1.50;1.20;;;1.00;99.90;;;-143.19;100.00;53775.09;4939312;28;20245;-65
2022/03/01 08:47:41;;;;;;;2.45;1.80;;;0.60;99.90;;;-143.19;100.00;53775.09;4919652;29;20214;-65
2022/03/01 08:50:10;;;;;;;1.27;1.00;;;1.50;99.90;;;-143.19;100.00;53775.09;4921930;29;20221;-66
2022/03/01 08:52:59;;;;;;;1.67;1.27;;;0.80;99.90;;;-143.19;100.00;53775.09;4930244;29;20232;-66
2022/03/01 08:55:28;;;;;;;2.35;1.60;;;0.90;99.90;;;-143.19;100.00;53775.09;4935467;29;20225;-66
2022/03/01 08:57:58;;;;;;;1.70;1.35;;;1.00;99.90;;;-143.19;100.00;53775.09;4936610;29;20198;-66
2022/03/01 09:00:27;;;;;;;1.63;1.30;;;1.00;99.90;;;-143.19;100.00;53775.09;4920533;29;20232;-66
2022/03/01 09:02:56;;;;;;;1.10;1.00;;;1.20;99.90;;;-143.19;100.00;53775.09;4923622;29;20206;-67
2022/03/01 09:05:26;;;;;;;1.45;1.30;;;1.20;99.90;;;-143.19;100.00;53775.09;4940615;28;20222;-66
2022/03/01 09:07:54;;;;;;;0.60;0.60;;;1.30;99.90;;;-143.19;100.00;53775.09;4927915;29;20206;-65
2022/03/01 09:10:23;;;;;;;1.70;1.60;;;1.60;99.90;;;-143.19;100.00;53775.09;4930787;28;20201;-65
2022/03/01 09:12:53;;;;;;;1.73;1.42;;;1.60;99.90;;;-143.19;100.00;53775.09;4942945;28;20232;-66
2022/03/01 09:15:23;;;;;;;1.35;1.20;;;1.60;99.90;;;-143.19;100.00;53775.09;4927744;28;20225;-65
2022/03/01 09:17:51;;;;;;;1.27;1.17;;;1.60;99.90;;;-143.19;100.00;53775.09;4923570;29;20210;-66
2022/03/01 09:20:20;;;;;;;1.38;1.10;;;1.70;99.90;;;-143.19;100.00;53775.09;4948786;28;20225;-65
2022/03/01 09:22:48;;;;;;;1.67;1.25;;;1.70;99.90;;;-143.19;100.00;53775.09;4942576;29;20233;-65
2022/03/01 09:25:16;;;;;;;2.17;1.77;;;2.10;99.90;;;-143.19;100.00;53775.09;4920607;28;20233;-67
2022/03/01 09:27:44;;;;;;;1.20;1.00;;;1.80;99.90;;;-143.19;100.00;53775.09;4935584;29;20666;-66
2022/03/01 09:30:13;;;;;;;1.27;1.10;;;1.90;99.90;;;-143.19;100.00;53775.09;4927832;28;20210;-65
2022/03/01 09:32:41;;;;;;;1.73;1.35;;;2.10;99.90;;;-143.19;100.00;53775.09;4918364;29;20210;-65
2022/03/01 09:35:09;;;;;;;2.00;1.50;;;2.10;99.90;;;-143.19;100.00;53775.09;4921975;28;20238;-65
2022/03/01 09:37:38;;;;;;;1.60;1.27;;;2.50;99.90;;;-143.19;100.00;53775.09;4937259;28;20246;-65
2022/03/01 09:40:08;;;;;;;1.98;1.48;;;2.30;99.90;;;-143.19;100.00;53775.09;4919783;28;20201;-66
2022/03/01 09:42:36;;;;;;;2.03;1.50;;;2.40;99.90;;;-143.19;100.00;53775.09;4940299;29;20213;-65
2022/03/01 09:45:05;;;;;;;2.50;1.70;;;3.10;99.90;;;-143.19;100.00;53775.09;4916808;28;20238;-65
2022/03/01 09:47:34;;;;;;;1.30;1.08;;;2.60;99.90;;;-143.19;100.00;53775.09;4937077;29;20214;-65
2022/03/01 09:50:05;;;;;;;2.00;1.50;;;2.80;99.90;;;-143.19;100.00;53775.09;4936346;29;20701;-65
2022/03/01 09:52:36;;;;;;;1.83;1.50;;;2.80;99.90;;;-143.19;100.00;53775.09;4926199;28;20224;-66
2022/03/01 09:55:09;;;;;;;0.90;0.80;;;3.00;99.90;;;-143.19;100.00;53775.09;4917793;28;20253;-66
2022/03/01 09:57:38;;;;;;;1.20;1.10;;;2.90;99.90;;;-143.19;100.00;53775.09;4933072;29;20222;-66
2022/03/01 10:00:08;;;;;;;1.80;1.30;;;3.20;99.90;;;-143.19;100.00;53775.09;4939977;28;20231;-66
2022/03/01 10:02:41;;;;;;;2.63;1.85;;;3.20;99.90;;;-143.19;100.00;53775.09;4936406;29;20217;-65
2022/03/01 10:05:12;;;;;;;1.67;1.35;;;3.30;99.90;;;-143.19;100.00;53775.09;4926503;29;20227;-65
2022/03/01 10:07:45;;;;;;;1.58;1.23;;;3.70;99.90;;;-143.19;100.00;53775.09;4940145;29;20229;-65